createdAt,value
2022-08-16T00:32:12.818Z,14.38
2022-08-16T01:05:46.758Z,15.85
2022-08-16T01:08:36.071Z,12.85
2022-08-16T01:11:53.617Z,13.82
2022-08-16T01:16:20.113Z,18.13
2022-08-16T01:19:17.471Z,14.27
2022-08-16T01:22:49.496Z,16.02
2022-08-16T01:26:00.158Z,16.83
2022-08-16T01:28:47.304Z,14.50
2022-08-16T01:31:45.981Z,14.55
2022-08-16T01:34:47.004Z,12.82
2022-08-16T01:40:43.523Z,13.88
2022-08-16T01:46:45.522Z,16.05
2022-08-16T01:52:27.966Z,17.80
2022-08-16T01:55:55.320Z,17.38
2022-08-16T02:03:19.421Z,14.48
2022-08-16T02:05:53.466Z,14.65
2022-08-16T02:11:53.210Z,13.23
2022-08-16T02:14:26.675Z,17.10
2022-08-16T02:23:50.921Z,16.25
2022-08-16T02:30:50.833Z,17.38
2022-08-16T02:33:50.642Z,18.98
2022-08-16T02:36:47.815Z,16.98
2022-08-16T02:39:46.343Z,17.00
2022-08-16T02:42:49.767Z,15.90
2022-08-16T02:45:49.381Z,17.30
2022-08-16T02:51:10.988Z,17.30
2022-08-16T02:53:52.867Z,20.63
2022-08-16T02:56:53.900Z,18.98
2022-08-16T02:59:50.057Z,17.08
2022-08-16T03:02:55.813Z,18.92
2022-08-16T03:08:52.548Z,17.98
2022-08-16T03:14:51.877Z,20.25
2022-08-16T03:17:53.070Z,16.15
2022-08-16T03:20:21.970Z,17.65
2022-08-16T03:36:50.859Z,21.83
2022-08-16T03:39:56.225Z,24.17
2022-08-16T03:42:25.428Z,19.13
2022-08-16T03:45:03.474Z,17.23
2022-08-16T03:47:58.247Z,20.38
2022-08-16T03:51:00.176Z,18.67
2022-08-16T03:54:01.411Z,20.35
2022-08-16T03:56:56.853Z,21.55
2022-08-16T04:03:52.868Z,22.08
2022-08-16T04:06:51.153Z,23.13
2022-08-16T04:12:53.764Z,20.17
2022-08-16T04:15:23.884Z,18.23
2022-08-16T04:17:55.870Z,23.48
2022-08-16T04:20:55.157Z,20.77
2022-08-16T04:26:22.648Z,26.35
2022-08-16T04:31:56.698Z,22.95
2022-08-16T04:35:52.406Z,18.73
2022-08-16T04:38:55.601Z,19.65
2022-08-16T04:41:32.794Z,22.25
2022-08-16T04:44:32.726Z,22.73
2022-08-16T04:47:56.215Z,21.10
2022-08-16T04:50:30.425Z,25.98
2022-08-16T04:55:53.474Z,22.58
2022-08-16T04:58:57.726Z,29.35
2022-08-16T05:01:59.128Z,19.88
2022-08-16T05:04:52.001Z,26.95
2022-08-16T05:10:26.708Z,22.80
2022-08-16T05:12:55.033Z,26.67
2022-08-16T05:15:57.487Z,26.08
2022-08-16T05:18:27.734Z,18.67
2022-08-16T05:21:01.265Z,21.30
2022-08-16T05:26:53.798Z,24.92
2022-08-16T05:29:25.059Z,22.83
2022-08-16T05:32:32.883Z,22.52
2022-08-16T05:35:24.560Z,22.88
2022-08-16T05:40:23.998Z,24.05
2022-08-16T05:42:55.256Z,23.05
2022-08-16T05:45:24.120Z,22.70
2022-08-16T05:47:59.663Z,22.67
2022-08-16T05:53:25.618Z,20.00
2022-08-16T05:55:55.068Z,24.73
2022-08-16T05:58:33.101Z,19.80
2022-08-16T06:03:55.660Z,22.70
2022-08-16T06:06:28.117Z,23.80
2022-08-16T06:08:57.510Z,25.58
2022-08-16T06:11:25.788Z,21.50
2022-08-16T06:13:55.462Z,21.95
2022-08-16T06:16:27.053Z,24.27
2022-08-16T06:18:55.455Z,27.52
2022-08-16T06:21:27.228Z,25.35
2022-08-16T06:24:54.410Z,25.17
2022-08-16T06:27:25.631Z,21.52
2022-08-16T06:30:28.873Z,24.75
2022-08-16T06:32:57.842Z,25.92
2022-08-16T06:35:59.956Z,23.55
2022-08-16T06:38:34.077Z,30.33
2022-08-16T06:41:27.334Z,24.40
2022-08-16T06:43:57.334Z,28.50
2022-08-16T06:46:38.650Z,25.02
2022-08-16T06:49:39.698Z,27.67
2022-08-16T06:53:00.596Z,28.42
2022-08-16T06:58:56.316Z,26.58
2022-08-16T07:01:57.993Z,25.20
2022-08-16T07:10:57.545Z,25.13
2022-08-16T07:20:03.693Z,28.00
2022-08-16T07:22:58.678Z,24.75
2022-08-16T07:25:55.060Z,29.17
2022-08-16T07:37:12.037Z,22.50
2022-08-16T07:41:00.102Z,29.85
2022-08-16T07:43:57.344Z,24.20
2022-08-16T07:49:57.907Z,26.00
2022-08-16T07:52:57.086Z,23.65
2022-08-16T07:55:28.537Z,22.92
2022-08-16T07:58:58.686Z,25.67
2022-08-16T08:02:04.500Z,18.88
2022-08-16T08:04:55.255Z,25.25
2022-08-16T08:10:11.025Z,23.23
2022-08-16T08:16:05.147Z,21.17
2022-08-16T08:19:01.022Z,26.75
2022-08-16T08:22:00.972Z,26.25
2022-08-16T08:24:59.100Z,25.10
2022-08-16T08:36:56.981Z,22.10
2022-08-16T08:39:28.159Z,19.45
2022-08-16T08:50:32.047Z,23.98
2022-08-16T08:53:02.250Z,20.60
2022-08-16T08:55:59.870Z,25.13
2022-08-16T09:01:42.471Z,30.23
2022-08-16T09:08:01.471Z,25.17
2022-08-16T09:10:58.850Z,23.95
2022-08-16T09:13:58.605Z,19.95
2022-08-16T09:17:02.476Z,24.75
2022-08-16T09:23:00.662Z,29.80
2022-08-16T09:26:00.516Z,24.58
2022-08-16T09:40:00.539Z,26.80
2022-08-16T09:43:00.246Z,24.25
2022-08-16T09:45:29.690Z,27.23
2022-08-16T09:48:01.248Z,27.40
2022-08-16T09:51:00.674Z,30.52
2022-08-16T09:54:01.897Z,28.77
2022-08-16T09:56:35.726Z,26.77
2022-08-16T09:59:08.447Z,29.85
2022-08-16T10:02:26.640Z,24.95
2022-08-16T10:05:01.516Z,20.52
2022-08-16T10:07:38.387Z,21.20
2022-08-16T10:14:58.875Z,23.77
2022-08-16T10:19:00.429Z,18.13
2022-08-16T10:21:00.995Z,27.95
2022-08-16T10:23:59.942Z,25.88
2022-08-16T10:30:01.108Z,24.70
2022-08-16T10:39:59.471Z,20.05
2022-08-16T10:46:01.321Z,25.77
2022-08-16T10:48:58.599Z,26.02
2022-08-16T10:51:34.282Z,31.25
2022-08-16T10:58:11.481Z,27.08
2022-08-16T11:00:59.099Z,27.10
2022-08-16T11:03:42.284Z,22.67
2022-08-16T11:06:19.026Z,25.45
2022-08-16T11:12:13.913Z,21.27
2022-08-16T11:15:30.033Z,22.08
2022-08-16T11:21:00.534Z,21.35
2022-08-16T11:23:30.397Z,25.67
2022-08-16T11:26:10.435Z,21.10
2022-08-16T11:29:16.021Z,28.90
2022-08-16T11:32:07.983Z,21.55
2022-08-16T11:35:15.997Z,20.70
2022-08-16T11:38:47.315Z,19.20
2022-08-16T11:41:08.055Z,24.17
2022-08-16T11:44:00.338Z,23.30
2022-08-16T11:46:44.879Z,20.83
2022-08-16T11:52:02.429Z,23.77
2022-08-16T11:54:35.769Z,22.85
2022-08-16T11:57:09.438Z,25.58
2022-08-16T12:00:01.437Z,24.10
2022-08-16T12:02:31.538Z,21.35
2022-08-16T12:05:01.423Z,23.25
2022-08-16T12:07:31.605Z,24.45
2022-08-16T12:10:02.646Z,21.25
2022-08-16T12:12:32.741Z,23.40
2022-08-16T12:15:04.688Z,23.92
2022-08-16T12:17:33.888Z,26.90
2022-08-16T12:20:05.010Z,23.70
2022-08-16T12:22:39.084Z,24.17
2022-08-16T12:25:10.230Z,25.20
2022-08-16T12:27:42.764Z,21.83
2022-08-16T12:30:21.472Z,23.38
2022-08-16T12:33:06.633Z,24.05
2022-08-16T12:36:05.171Z,22.10
2022-08-16T12:38:48.095Z,20.98
2022-08-16T12:41:28.237Z,24.88
2022-08-16T12:44:00.958Z,23.58
2022-08-16T12:46:31.368Z,23.83
2022-08-16T12:49:02.767Z,23.23
2022-08-16T12:51:58.502Z,26.63
2022-08-16T12:54:27.742Z,23.70
2022-08-16T12:56:57.416Z,22.30
2022-08-16T12:59:26.490Z,24.95
2022-08-16T13:02:02.175Z,19.70
2022-08-16T13:04:33.226Z,22.88
2022-08-16T13:09:32.700Z,23.08
2022-08-16T13:12:24.957Z,23.30
2022-08-16T13:14:54.849Z,26.30
2022-08-16T13:17:32.965Z,23.35
2022-08-16T13:20:08.547Z,24.17
2022-08-16T13:25:35.111Z,21.60
2022-08-16T13:28:04.771Z,20.40
2022-08-16T13:30:41.758Z,19.10
2022-08-16T13:33:16.992Z,18.25
2022-08-16T13:35:55.632Z,18.50
2022-08-16T13:38:37.294Z,18.52
2022-08-16T13:44:04.413Z,21.45
2022-08-16T13:46:39.147Z,21.77
2022-08-16T13:49:17.258Z,20.48
2022-08-16T13:51:52.060Z,18.60
2022-08-16T13:55:03.646Z,19.73
2022-08-16T13:57:53.355Z,19.27
2022-08-16T14:03:34.344Z,20.60
2022-08-16T14:06:05.844Z,18.58
2022-08-16T14:08:34.155Z,24.40
2022-08-16T14:11:07.021Z,23.90
2022-08-16T14:13:43.011Z,25.27
2022-08-16T14:16:33.944Z,23.77
2022-08-16T14:19:03.976Z,21.15
2022-08-16T14:21:34.864Z,18.20
2022-08-16T14:24:12.813Z,24.83
2022-08-16T14:26:55.683Z,18.75
2022-08-16T14:29:31.982Z,18.70
2022-08-16T14:32:09.634Z,23.05
2022-08-16T14:34:51.829Z,21.45
2022-08-16T14:37:26.252Z,24.15
2022-08-16T14:39:59.316Z,24.65
2022-08-16T14:42:28.862Z,18.70
2022-08-16T14:45:00.845Z,19.98
2022-08-16T14:47:34.895Z,23.60
2022-08-16T14:50:05.721Z,21.65
2022-08-16T14:55:24.095Z,22.63
2022-08-16T14:57:52.889Z,25.98
2022-08-16T15:00:33.109Z,21.45
2022-08-16T15:03:06.877Z,25.52
2022-08-16T15:05:40.254Z,22.55
2022-08-16T15:08:09.341Z,20.67
2022-08-16T15:10:39.164Z,23.80
2022-08-16T15:13:30.350Z,22.60
2022-08-16T15:16:02.560Z,23.80
2022-08-16T15:18:37.253Z,20.55
2022-08-16T15:21:29.777Z,24.40
2022-08-16T15:24:00.147Z,18.63
2022-08-16T15:26:44.800Z,18.95
2022-08-16T15:29:16.567Z,22.02
2022-08-16T15:34:33.824Z,22.70
2022-08-16T15:37:02.690Z,22.40
2022-08-16T15:39:40.183Z,20.63
2022-08-16T15:42:36.333Z,22.20
2022-08-16T15:45:11.458Z,27.52
2022-08-16T15:47:41.253Z,22.75
2022-08-16T15:50:28.889Z,23.75
2022-08-16T15:52:58.426Z,20.80
2022-08-16T15:55:37.313Z,23.65
2022-08-16T15:58:35.681Z,21.83
2022-08-16T16:04:10.027Z,21.80
2022-08-16T16:07:11.764Z,23.80
2022-08-16T16:10:04.952Z,20.92
2022-08-16T16:12:54.209Z,21.35
2022-08-16T16:15:29.481Z,22.45
2022-08-16T16:18:09.376Z,20.48
2022-08-16T16:27:05.708Z,20.13
2022-08-16T16:30:33.331Z,21.08
2022-08-16T16:33:03.277Z,18.20
2022-08-16T16:36:38.852Z,17.38
2022-08-16T16:43:04.395Z,17.30
2022-08-16T16:49:07.040Z,18.35
2022-08-16T16:52:06.977Z,18.23
2022-08-16T16:55:03.008Z,16.05
2022-08-16T17:01:09.239Z,16.02
2022-08-16T17:04:13.149Z,16.98
2022-08-16T17:07:36.161Z,18.25
2022-08-16T17:10:09.302Z,19.75
2022-08-16T17:15:36.608Z,17.05
2022-08-16T17:19:17.396Z,19.55
2022-08-16T17:22:06.475Z,19.38
2022-08-16T17:30:45.562Z,16.50
2022-08-16T17:33:17.262Z,15.88
2022-08-16T17:36:04.397Z,17.10
2022-08-16T17:38:43.902Z,16.92
2022-08-16T17:41:15.013Z,17.55
2022-08-16T17:43:48.500Z,16.60
2022-08-16T17:46:41.148Z,21.95
2022-08-16T17:49:06.573Z,16.58
2022-08-16T17:51:35.144Z,19.00
2022-08-16T17:54:04.435Z,19.80
2022-08-16T17:59:40.940Z,22.27
2022-08-16T18:05:01.725Z,16.05
2022-08-16T18:10:06.173Z,18.33
2022-08-16T18:12:54.978Z,15.83
2022-08-16T18:22:04.826Z,15.00
2022-08-16T18:24:39.545Z,18.25
2022-08-16T18:27:37.501Z,17.60
2022-08-16T18:33:43.373Z,17.85
2022-08-16T18:36:41.339Z,20.88
2022-08-16T18:42:41.244Z,19.65
2022-08-16T18:45:10.266Z,18.40
2022-08-16T18:47:38.992Z,18.50
2022-08-16T18:53:40.002Z,15.98
2022-08-16T18:56:11.371Z,15.93
2022-08-16T18:58:40.251Z,17.15
2022-08-16T19:01:46.277Z,18.23
2022-08-16T19:14:41.772Z,18.07
2022-08-16T19:20:44.455Z,20.20
2022-08-16T19:26:46.152Z,17.58
2022-08-16T19:29:21.885Z,19.55
2022-08-16T19:40:45.920Z,18.05
2022-08-16T19:43:40.512Z,19.88
2022-08-16T19:51:55.875Z,16.23
2022-08-16T20:24:40.201Z,14.85
2022-08-16T20:46:39.688Z,12.70
2022-08-16T20:53:45.389Z,13.75
2022-08-16T21:06:41.379Z,15.02
2022-08-16T21:13:17.743Z,13.25
2022-08-16T21:15:46.595Z,15.82
2022-08-16T21:18:20.701Z,13.88
2022-08-16T21:21:16.413Z,12.35
2022-08-16T21:30:25.063Z,14.27
2022-08-16T21:56:19.910Z,11.77
2022-08-16T22:06:23.462Z,12.07
2022-08-16T22:09:19.200Z,8.77
2022-08-16T22:12:18.031Z,8.13
2022-08-16T22:18:18.026Z,9.10
2022-08-16T22:21:20.152Z,8.43
2022-08-16T22:24:19.401Z,8.18
2022-08-16T22:27:20.097Z,8.23
2022-08-16T22:29:48.679Z,12.90
2022-08-16T22:32:17.753Z,11.40
2022-08-16T22:34:46.809Z,12.52
2022-08-16T22:37:15.691Z,11.77
2022-08-16T22:39:47.611Z,10.20
2022-08-16T22:42:19.064Z,8.35
2022-08-16T22:47:26.753Z,9.63
2022-08-16T22:50:26.025Z,8.88
2022-08-16T23:00:28.038Z,11.02
2022-08-16T23:06:05.178Z,9.60
2022-08-16T23:08:52.874Z,7.30
2022-08-16T23:23:28.602Z,8.27
2022-08-16T23:27:22.972Z,8.70
2022-08-16T23:30:53.837Z,8.68
